Accueil
METAR-TAF:

METAR-TAF

Aéroports :

Campo, Californie, États-Unis

latitude: 32-37-34N, longitude: 116-28-06W, altitude: 807 m

Observation

Le bulletin a été fait il y a 29 minutes, à 23:52 UTC
Vent 11 kt de est
Température 19°C
Humidité 18%
Pression 1021 hPa

METAR: KCZZ 272352Z AUTO 08011KT 19/M06 A3015 RMK AO1 SLP194 T01941061 10206 20189 53001

Heure: 16:21 (00:21 UTC)


TAF: absent

Observations et prévisions météorologiques de plus de 4000 aéroports (messages METAR et TAF).

Les stations disponibles sont représentées par des disques jaunes et rouges sur la carte.

Passer la souris dessus pour voir le nom de la station.

Cliquer dessus pour voir les observations et prévisions météorologiques.

Pour changer de carte: cliquez sur les boutons verts avec une croix noire pour zoomer, sur le bouton vert avec un tiret pour effectuer un zoom arrière, ou sur les flèches vertes pour les cartes adjacentes.


METAR-TAF: